createdAt,value
2023-04-21T00:00:10.381Z,5.60
2023-04-21T00:02:39.772Z,5.60
2023-04-21T00:05:13.917Z,5.50
2023-04-21T00:07:41.676Z,5.40
2023-04-21T00:10:10.817Z,5.50
2023-04-21T00:15:06.899Z,5.50
2023-04-21T00:22:28.608Z,5.30
2023-04-21T00:51:58.754Z,5.10
2023-04-21T01:21:43.065Z,4.70
2023-04-21T01:34:04.964Z,4.40
2023-04-21T01:56:15.241Z,4.40
2023-04-21T02:03:37.390Z,4.50
2023-04-21T02:06:04.862Z,4.50
2023-04-21T02:08:31.844Z,4.50
2023-04-21T02:11:01.811Z,4.50
2023-04-21T02:21:07.508Z,4.50
2023-04-21T02:26:01.960Z,4.50
2023-04-21T02:40:45.969Z,4.50
2023-04-21T02:43:14.742Z,4.60
2023-04-21T02:58:00.181Z,4.60
2023-04-21T03:00:27.236Z,4.70
2023-04-21T03:02:54.585Z,4.80
2023-04-21T03:05:21.846Z,4.70
2023-04-21T03:12:43.618Z,4.80
2023-04-21T03:15:11.506Z,4.70
2023-04-21T03:20:08.544Z,4.70
2023-04-21T03:22:36.363Z,4.80
2023-04-21T03:25:03.453Z,4.90
2023-04-21T03:37:20.637Z,4.90
2023-04-21T03:42:14.961Z,4.90
2023-04-21T03:49:36.675Z,4.80
2023-04-21T03:52:03.880Z,4.80
2023-04-21T04:09:15.667Z,4.80
2023-04-21T04:16:37.493Z,5.00
2023-04-21T04:19:04.737Z,4.90
2023-04-21T04:21:32.599Z,3.40
2023-04-21T04:26:27.711Z,4.90
2023-04-21T04:31:25.722Z,4.90
2023-04-21T04:33:55.512Z,5.00
2023-04-21T04:36:27.825Z,4.90
2023-04-21T04:38:54.808Z,4.80
2023-04-21T04:41:23.172Z,4.90
2023-04-21T04:48:52.122Z,5.00
2023-04-21T05:01:30.921Z,5.00
2023-04-21T05:13:48.236Z,5.10
2023-04-21T05:16:15.295Z,5.20
2023-04-21T05:21:09.710Z,5.10
2023-04-21T05:33:27.283Z,5.00
2023-04-21T05:35:54.267Z,5.10
2023-04-21T05:38:21.336Z,5.00
2023-04-21T05:40:57.231Z,5.10
2023-04-21T05:43:24.293Z,5.10
2023-04-21T05:45:51.561Z,5.10
2023-04-21T05:48:18.670Z,5.10
2023-04-21T05:53:13.204Z,5.00
2023-04-21T05:58:07.779Z,5.00
2023-04-21T06:00:34.848Z,5.00
2023-04-21T06:03:02.319Z,5.10
2023-04-21T06:05:29.420Z,5.10
2023-04-21T06:07:56.457Z,5.00
2023-04-21T06:10:23.630Z,5.00
2023-04-21T06:12:50.813Z,5.00
2023-04-21T06:15:17.886Z,5.10
2023-04-21T06:17:45.025Z,5.20
2023-04-21T06:20:12.628Z,5.20
2023-04-21T06:22:40.106Z,5.20
2023-04-21T06:25:07.639Z,4.40
2023-04-21T06:27:34.609Z,5.00
2023-04-21T06:37:23.899Z,5.10
2023-04-21T06:39:50.959Z,5.20
2023-04-21T06:42:17.982Z,5.20
2023-04-21T06:44:45.041Z,5.40
2023-04-21T06:47:12.172Z,5.30
2023-04-21T06:49:39.576Z,5.20
2023-04-21T06:52:06.580Z,5.10
2023-04-21T06:57:01.003Z,5.20
2023-04-21T06:59:27.989Z,5.20
2023-04-21T07:01:55.086Z,5.40
2023-04-21T07:04:22.389Z,5.40
2023-04-21T07:09:17.329Z,5.30
2023-04-21T07:11:44.590Z,5.40
2023-04-21T07:14:11.645Z,5.60
2023-04-21T07:16:38.844Z,5.60
2023-04-21T07:19:05.962Z,5.70
2023-04-21T07:21:36.193Z,5.80
2023-04-21T07:24:04.139Z,5.90
2023-04-21T07:26:31.819Z,5.90
2023-04-21T07:31:26.501Z,5.70
2023-04-21T07:33:53.515Z,5.90
2023-04-21T07:36:20.857Z,5.90
2023-04-21T07:38:47.853Z,5.90
2023-04-21T07:41:14.911Z,6.00
2023-04-21T07:43:41.891Z,6.20
2023-04-21T07:46:09.327Z,6.50
2023-04-21T07:48:36.415Z,6.50
2023-04-21T07:51:03.680Z,6.40
2023-04-21T07:53:31.214Z,6.70
2023-04-21T07:55:58.715Z,7.00
2023-04-21T08:00:53.206Z,7.40
2023-04-21T08:03:22.827Z,7.30
2023-04-21T08:05:51.842Z,7.30
2023-04-21T08:08:20.543Z,7.40
2023-04-21T08:10:47.763Z,7.80
2023-04-21T08:13:15.019Z,7.70
2023-04-21T08:15:42.074Z,7.70
2023-04-21T08:18:09.758Z,7.70
2023-04-21T08:20:36.750Z,7.90
2023-04-21T08:23:03.982Z,8.00
2023-04-21T08:25:31.165Z,8.20
2023-04-21T08:30:28.039Z,8.50
2023-04-21T08:32:55.181Z,8.50
2023-04-21T08:35:22.210Z,8.50
2023-04-21T08:37:50.151Z,9.10
2023-04-21T08:40:19.482Z,9.10
2023-04-21T08:42:47.041Z,9.50
2023-04-21T08:45:14.264Z,9.50
2023-04-21T08:47:42.268Z,9.50
2023-04-21T08:50:14.777Z,9.90
2023-04-21T08:52:41.807Z,9.90
2023-04-21T08:55:11.715Z,10.00
2023-04-21T08:57:38.707Z,10.00
2023-04-21T09:00:08.215Z,10.10
2023-04-21T09:03:02.167Z,10.00
2023-04-21T09:05:32.192Z,10.10
2023-04-21T09:08:13.283Z,9.90
2023-04-21T09:10:48.534Z,10.10
2023-04-21T09:13:16.710Z,10.70
2023-04-21T09:15:47.504Z,10.60
2023-04-21T09:18:24.396Z,10.80
2023-04-21T09:21:06.138Z,11.10
2023-04-21T09:23:47.797Z,11.10
2023-04-21T09:26:17.711Z,11.10
2023-04-21T09:28:46.959Z,11.70
2023-04-21T09:31:16.946Z,11.60
2023-04-21T09:33:59.407Z,11.40
2023-04-21T09:36:30.704Z,11.40
2023-04-21T09:41:33.331Z,12.20
2023-04-21T09:44:02.012Z,12.50
2023-04-21T09:46:33.089Z,12.50
2023-04-21T09:49:04.051Z,12.60
2023-04-21T09:56:54.196Z,13.20
2023-04-21T09:59:27.790Z,13.10
2023-04-21T10:01:58.326Z,13.60
2023-04-21T10:04:26.746Z,13.60
2023-04-21T10:06:56.004Z,14.30
2023-04-21T10:09:25.981Z,14.20
2023-04-21T10:11:55.738Z,14.20
2023-04-21T10:14:23.365Z,14.40
2023-04-21T10:17:07.826Z,14.40
2023-04-21T10:19:40.149Z,14.30
2023-04-21T10:22:09.905Z,14.70
2023-04-21T10:24:41.986Z,14.70
2023-04-21T10:27:13.482Z,14.80
2023-04-21T10:29:55.476Z,14.80
2023-04-21T10:32:43.471Z,15.20
2023-04-21T10:35:13.542Z,15.10
2023-04-21T10:37:44.805Z,15.30
2023-04-21T10:43:06.659Z,15.40
2023-04-21T10:45:33.795Z,15.90
2023-04-21T10:48:03.083Z,15.80
2023-04-21T10:50:31.773Z,16.10
2023-04-21T10:53:11.548Z,16.10
2023-04-21T10:55:40.058Z,16.20
2023-04-21T10:58:09.371Z,16.00
2023-04-21T11:00:40.481Z,16.20
2023-04-21T11:03:08.922Z,16.70
2023-04-21T11:05:41.146Z,17.10
2023-04-21T11:08:16.031Z,17.20
2023-04-21T11:10:47.977Z,17.30
2023-04-21T11:13:15.586Z,16.90
2023-04-21T11:15:43.144Z,16.80
2023-04-21T11:18:10.405Z,16.80
2023-04-21T11:20:42.297Z,17.30
2023-04-21T11:25:38.325Z,17.80
2023-04-21T11:28:06.570Z,17.40
2023-04-21T11:30:34.902Z,17.80
2023-04-21T11:33:02.870Z,18.20
2023-04-21T11:35:31.895Z,18.20
2023-04-21T11:37:59.019Z,18.10
2023-04-21T11:40:26.434Z,18.00
2023-04-21T11:50:33.672Z,18.70
2023-04-21T11:53:03.179Z,18.30
2023-04-21T11:55:30.305Z,18.00
2023-04-21T12:02:57.063Z,19.20
2023-04-21T12:08:02.147Z,19.50
2023-04-21T12:10:29.886Z,19.20
2023-04-21T12:15:26.032Z,19.40
2023-04-21T12:17:54.825Z,19.80
2023-04-21T12:20:24.703Z,19.50
2023-04-21T12:27:52.174Z,19.60
2023-04-21T12:31:15.433Z,19.90
2023-04-21T12:34:06.648Z,20.20
2023-04-21T12:36:35.884Z,20.50
2023-04-21T12:41:31.468Z,20.80
2023-04-21T12:43:58.494Z,20.00
2023-04-21T12:46:25.626Z,19.70
2023-04-21T12:58:43.932Z,20.80
2023-04-21T13:06:11.895Z,20.50
2023-04-21T13:25:51.919Z,21.70
2023-04-21T13:28:19.391Z,21.80
2023-04-21T13:35:41.745Z,21.80
2023-04-21T13:47:59.657Z,21.50
2023-04-21T13:55:22.139Z,22.20
2023-04-21T14:00:17.104Z,20.80
2023-04-21T14:10:08.230Z,22.00
2023-04-21T14:42:05.462Z,21.60
2023-04-21T14:49:39.115Z,21.80
2023-04-21T14:52:07.339Z,21.40
2023-04-21T15:24:10.329Z,22.20
2023-04-21T15:26:40.494Z,21.90
2023-04-21T15:36:32.128Z,20.60
2023-04-21T15:51:20.499Z,20.30
2023-04-21T15:53:49.638Z,20.50
2023-04-21T15:56:17.248Z,20.60
2023-04-21T15:58:44.447Z,21.20
2023-04-21T16:06:08.035Z,19.50
2023-04-21T16:13:29.952Z,19.30
2023-04-21T16:15:57.173Z,18.90
2023-04-21T16:18:24.332Z,18.80
2023-04-21T16:23:19.741Z,17.40
2023-04-21T16:28:14.873Z,16.90
2023-04-21T16:30:43.784Z,16.20
2023-04-21T16:33:11.712Z,15.80
2023-04-21T16:35:39.462Z,15.50
2023-04-21T16:38:06.783Z,15.40
2023-04-21T16:40:34.351Z,15.20
2023-04-21T16:43:01.823Z,15.20
2023-04-21T16:45:30.028Z,15.00
2023-04-21T16:47:58.135Z,15.20
2023-04-21T16:50:25.480Z,15.90
2023-04-21T16:52:52.667Z,16.80
2023-04-21T16:55:20.319Z,17.20
2023-04-21T16:57:47.471Z,17.30
2023-04-21T17:00:15.275Z,17.00
2023-04-21T17:02:42.430Z,17.00
2023-04-21T17:05:12.185Z,17.00
2023-04-21T17:07:42.496Z,16.90
2023-04-21T17:10:10.319Z,16.70
2023-04-21T17:12:37.696Z,17.00
2023-04-21T17:15:05.666Z,16.70
2023-04-21T17:17:45.086Z,16.40
2023-04-21T17:20:14.443Z,15.90
2023-04-21T17:22:42.394Z,15.90
2023-04-21T17:25:10.403Z,15.70
2023-04-21T17:27:38.705Z,15.50
2023-04-21T17:30:07.988Z,15.40
2023-04-21T17:32:40.524Z,15.40
2023-04-21T17:35:08.046Z,15.40
2023-04-21T17:37:35.258Z,15.30
2023-04-21T17:40:03.311Z,15.10
2023-04-21T17:42:31.154Z,15.00
2023-04-21T17:47:25.908Z,14.80
2023-04-21T17:49:52.995Z,14.90
2023-04-21T17:52:19.978Z,14.90
2023-04-21T18:04:37.285Z,14.30
2023-04-21T18:07:04.782Z,14.50
2023-04-21T18:09:32.042Z,14.30
2023-04-21T18:14:26.929Z,14.20
2023-04-21T18:16:54.977Z,14.10
2023-04-21T18:19:22.073Z,13.80
2023-04-21T18:21:49.233Z,13.60
2023-04-21T18:24:16.374Z,13.50
2023-04-21T18:26:43.763Z,13.40
2023-04-21T18:29:10.868Z,13.30
2023-04-21T18:31:38.078Z,13.10
2023-04-21T18:34:06.101Z,12.90
2023-04-21T18:41:29.754Z,12.70
2023-04-21T18:43:56.863Z,12.70
2023-04-21T18:46:24.162Z,12.70
2023-04-21T18:51:19.201Z,12.70
2023-04-21T18:53:46.400Z,12.70
2023-04-21T19:11:33.583Z,12.60
2023-04-21T19:16:29.037Z,12.60
2023-04-21T19:18:56.191Z,12.50
2023-04-21T19:21:23.388Z,12.20
2023-04-21T19:28:49.279Z,12.00
2023-04-21T19:31:19.358Z,12.10
2023-04-21T19:33:46.553Z,11.90
2023-04-21T19:36:13.915Z,11.80
2023-04-21T19:43:35.834Z,11.90
2023-04-21T19:48:30.388Z,11.80
2023-04-21T19:50:57.672Z,11.70
2023-04-21T19:53:24.831Z,11.90
2023-04-21T19:55:52.977Z,11.80
2023-04-21T20:01:06.571Z,11.90
2023-04-21T20:03:34.291Z,11.90
2023-04-21T20:08:29.856Z,11.80
2023-04-21T20:13:24.385Z,12.00
2023-04-21T20:38:10.499Z,12.00
2023-04-21T20:48:02.071Z,12.00
2023-04-21T21:13:07.424Z,12.20
2023-04-21T21:15:34.876Z,12.20
2023-04-21T21:27:53.370Z,12.40
2023-04-21T21:42:39.603Z,12.10
2023-04-21T21:47:38.269Z,12.10
2023-04-21T21:50:08.597Z,12.10
2023-04-21T22:04:56.404Z,12.00
2023-04-21T22:09:52.866Z,11.90
2023-04-21T22:36:55.654Z,11.70
2023-04-21T22:41:51.323Z,11.60
2023-04-21T23:13:50.254Z,11.20
2023-04-21T23:38:24.001Z,10.90
2023-04-21T23:40:50.947Z,10.30
2023-04-21T23:43:17.999Z,10.90
2023-04-21T23:50:39.987Z,10.90
2023-04-21T23:53:07.010Z,11.00
